SPTN35 YSHW-YSHW
Flight info
| Callsign | SPTN35 |
|---|---|
| Flight time | 0h 19m |
| Altitude | 2000 |
| Route | 3357S15113E |
| Aircraft | H60/M-SDFGRY/LB1 |
Departure
| Time | 2026-04-15 12:32 |
|---|---|
| Airport | Holsworthy (Military) Airport (YSHW) |
Arrival
| Time | 2026-04-15 12:52 |
|---|---|
| Airport | Holsworthy (Military) Airport (YSHW) |
| Time | Latitude | Longitude | Altitude | Speed | Heading |
|---|---|---|---|---|---|
| 2026-04-15 12:24 | -33.99511 | 150.95321 | 242 ft | 0 kts | 129° |
| 2026-04-15 12:31 | -33.99526 | 150.95342 | 243 ft | 6 kts | 193° |
| 2026-04-15 12:31 | -33.99579 | 150.95306 | 242 ft | 4 kts | 215° |
| 2026-04-15 12:31 | -33.99600 | 150.95280 | 243 ft | 7 kts | 276° |
| 2026-04-15 12:31 | -33.99536 | 150.95162 | 308 ft | 31 kts | 298° |
| 2026-04-15 12:32 | -33.99352 | 150.94839 | 632 ft | 59 kts | 296° |
| 2026-04-15 12:32 | -33.99579 | 150.94569 | 848 ft | 54 kts | 142° |
| 2026-04-15 12:32 | -33.99682 | 150.95058 | 574 ft | 76 kts | 103° |
| 2026-04-15 12:32 | -33.99942 | 150.95492 | 932 ft | 59 kts | 129° |
| 2026-04-15 12:33 | -34.00063 | 150.95828 | 1001 ft | 80 kts | 115° |
| 2026-04-15 12:33 | -34.00408 | 150.96988 | 991 ft | 140 kts | 110° |
| 2026-04-15 12:33 | -34.00723 | 150.98145 | 877 ft | 143 kts | 109° |
| 2026-04-15 12:33 | -34.01034 | 150.99299 | 894 ft | 146 kts | 109° |
| 2026-04-15 12:34 | -34.01315 | 151.00461 | 986 ft | 142 kts | 102° |
| 2026-04-15 12:34 | -34.01318 | 151.01689 | 1334 ft | 155 kts | 91° |
| 2026-04-15 12:34 | -34.01256 | 151.02976 | 1310 ft | 157 kts | 88° |
| 2026-04-15 12:34 | -34.01196 | 151.04264 | 1415 ft | 154 kts | 88° |
| 2026-04-15 12:35 | -34.01146 | 151.05515 | 1418 ft | 150 kts | 88° |
| 2026-04-15 12:35 | -34.01093 | 151.06774 | 1424 ft | 149 kts | 88° |
| 2026-04-15 12:35 | -34.01046 | 151.08010 | 1426 ft | 150 kts | 88° |
| 2026-04-15 12:35 | -34.00991 | 151.09250 | 1422 ft | 147 kts | 88° |
| 2026-04-15 12:36 | -34.00935 | 151.10503 | 1424 ft | 148 kts | 88° |
| 2026-04-15 12:36 | -34.00674 | 151.11630 | 1429 ft | 144 kts | 64° |
| 2026-04-15 12:36 | -34.00193 | 151.12760 | 1432 ft | 151 kts | 64° |
| 2026-04-15 12:36 | -33.99693 | 151.13876 | 1427 ft | 150 kts | 63° |
| 2026-04-15 12:37 | -33.99195 | 151.14990 | 1425 ft | 151 kts | 63° |
| 2026-04-15 12:37 | -33.98859 | 151.15736 | 1429 ft | 150 kts | 63° |
| 2026-04-15 12:37 | -33.98198 | 151.17229 | 1424 ft | 152 kts | 63° |
| 2026-04-15 12:37 | -33.97689 | 151.18330 | 1178 ft | 146 kts | 62° |
| 2026-04-15 12:38 | -33.97109 | 151.19276 | 919 ft | 138 kts | 54° |
| 2026-04-15 12:38 | -33.96550 | 151.20131 | 952 ft | 119 kts | 54° |
| 2026-04-15 12:38 | -33.96107 | 151.20783 | 1476 ft | 93 kts | 53° |
| 2026-04-15 12:38 | -33.95765 | 151.21528 | 637 ft | 103 kts | 77° |
| 2026-04-15 12:39 | -33.95659 | 151.22026 | 571 ft | 90 kts | 67° |
| 2026-04-15 12:39 | -33.95080 | 151.22376 | 338 ft | 59 kts | 6° |
| 2026-04-15 12:39 | -33.94680 | 151.22438 | 251 ft | 49 kts | 2° |
| 2026-04-15 12:39 | -33.94525 | 151.22479 | 240 ft | 17 kts | 11° |
| 2026-04-15 12:40 | -33.94499 | 151.22498 | 158 ft | 3 kts | 20° |
| 2026-04-15 12:40 | -33.94495 | 151.22501 | 158 ft | 2 kts | 17° |
| 2026-04-15 12:40 | -33.94494 | 151.22502 | 157 ft | 2 kts | 15° |
| 2026-04-15 12:42 | -33.94490 | 151.22609 | 281 ft | 51 kts | 83° |
| 2026-04-15 12:42 | -33.94547 | 151.23276 | 636 ft | 101 kts | 101° |
| 2026-04-15 12:42 | -33.94724 | 151.24277 | 681 ft | 131 kts | 106° |
| 2026-04-15 12:42 | -33.94983 | 151.25323 | 982 ft | 131 kts | 110° |
| 2026-04-15 12:43 | -33.95308 | 151.26328 | 890 ft | 133 kts | 115° |
| 2026-04-15 12:43 | -33.95826 | 151.27148 | 853 ft | 103 kts | 137° |
| 2026-04-15 12:43 | -33.96277 | 151.27566 | 1288 ft | 72 kts | 167° |
| 2026-04-15 12:43 | -33.96739 | 151.27834 | 901 ft | 67 kts | 179° |
| 2026-04-15 12:44 | -33.97072 | 151.27900 | 972 ft | 27 kts | 276° |
| 2026-04-15 12:44 | -33.97132 | 151.27888 | 876 ft | 7 kts | 276° |
| 2026-04-15 12:44 | -33.97077 | 151.27775 | 823 ft | 32 kts | 287° |
| 2026-04-15 12:44 | -33.96955 | 151.27363 | 976 ft | 78 kts | 290° |
| 2026-04-15 12:45 | -33.96859 | 151.26479 | 973 ft | 130 kts | 275° |
| 2026-04-15 12:45 | -33.96876 | 151.25283 | 864 ft | 152 kts | 261° |
| 2026-04-15 12:45 | -33.97060 | 151.24015 | 1147 ft | 152 kts | 258° |
| 2026-04-15 12:45 | -33.97281 | 151.22759 | 993 ft | 153 kts | 258° |
| 2026-04-15 12:46 | -33.97501 | 151.21497 | 951 ft | 157 kts | 259° |
| 2026-04-15 12:46 | -33.97644 | 151.20243 | 1054 ft | 148 kts | 263° |
| 2026-04-15 12:46 | -33.97756 | 151.18999 | 1047 ft | 150 kts | 264° |
| 2026-04-15 12:46 | -33.97828 | 151.17711 | 792 ft | 154 kts | 266° |
| 2026-04-15 12:47 | -33.97890 | 151.16384 | 866 ft | 169 kts | 268° |
| 2026-04-15 12:47 | -33.97909 | 151.14926 | 1047 ft | 176 kts | 270° |
| 2026-04-15 12:47 | -33.97956 | 151.13435 | 1092 ft | 178 kts | 267° |
| 2026-04-15 12:47 | -33.98002 | 151.11960 | 987 ft | 175 kts | 269° |
| 2026-04-15 12:48 | -33.98031 | 151.10532 | 1303 ft | 171 kts | 269° |
| 2026-04-15 12:48 | -33.98067 | 151.09059 | 1150 ft | 180 kts | 269° |
| 2026-04-15 12:48 | -33.98115 | 151.07621 | 1504 ft | 166 kts | 267° |
| 2026-04-15 12:48 | -33.98184 | 151.06250 | 1082 ft | 168 kts | 266° |
| 2026-04-15 12:49 | -33.98253 | 151.04857 | 1131 ft | 166 kts | 268° |
| 2026-04-15 12:49 | -33.98309 | 151.03489 | 1129 ft | 162 kts | 267° |
| 2026-04-15 12:49 | -33.98360 | 151.02133 | 1126 ft | 161 kts | 267° |
| 2026-04-15 12:49 | -33.98414 | 151.00788 | 1124 ft | 161 kts | 267° |
| 2026-04-15 12:50 | -33.98469 | 150.99441 | 1124 ft | 161 kts | 267° |
| 2026-04-15 12:50 | -33.98524 | 150.98095 | 1125 ft | 161 kts | 267° |
| 2026-04-15 12:50 | -33.98579 | 150.96751 | 1130 ft | 159 kts | 267° |
| 2026-04-15 12:50 | -33.98633 | 150.95420 | 1128 ft | 161 kts | 267° |
| 2026-04-15 12:51 | -33.98870 | 150.94254 | 1102 ft | 121 kts | 223° |
| 2026-04-15 12:51 | -33.99496 | 150.94023 | 920 ft | 93 kts | 136° |
| 2026-04-15 12:51 | -34.00008 | 150.94645 | 836 ft | 123 kts | 124° |
| 2026-04-15 12:51 | -34.00374 | 150.95620 | 630 ft | 118 kts | 83° |
| 2026-04-15 12:52 | -34.00071 | 150.96139 | 897 ft | 31 kts | 312° |
| 2026-04-15 12:52 | -33.99843 | 150.95697 | 376 ft | 86 kts | 303° |
| 2026-04-15 12:52 | -33.99641 | 150.95347 | 302 ft | 17 kts | 308° |
| 2026-04-15 12:52 | -33.99589 | 150.95257 | 244 ft | 11 kts | 302° |
| 2026-04-15 12:53 | -33.99537 | 150.95262 | 243 ft | 9 kts | 33° |
| 2026-04-15 12:53 | -33.99497 | 150.95293 | 243 ft | 3 kts | 324° |
| 2026-04-15 12:53 | -33.99482 | 150.95267 | 243 ft | 0 kts | 303° |